createdAt,value
2023-06-01T00:00:14.749Z,197.61
2023-06-01T00:01:14.822Z,196.06
2023-06-01T00:02:14.904Z,194.69
2023-06-01T00:03:15.124Z,196.74
2023-06-01T00:04:15.050Z,196.57
2023-06-01T00:05:15.052Z,197.92
2023-06-01T00:06:15.140Z,195.22
2023-06-01T00:07:15.181Z,194.16
2023-06-01T00:08:15.227Z,198.11
2023-06-01T00:09:15.287Z,197.43
2023-06-01T00:10:15.359Z,195.96
2023-06-01T00:11:15.432Z,197.74
2023-06-01T00:12:15.495Z,197.48
2023-06-01T00:13:15.556Z,197.31
2023-06-01T00:14:15.599Z,195.33
2023-06-01T00:15:15.663Z,196.44
2023-06-01T00:16:15.751Z,195.87
2023-06-01T00:17:15.785Z,196.75
2023-06-01T00:18:15.864Z,196.48
2023-06-01T00:19:15.937Z,197.67
2023-06-01T00:20:15.977Z,195.29
2023-06-01T00:21:16.099Z,196.56
2023-06-01T00:22:16.093Z,197.54
2023-06-01T00:23:16.160Z,196.85
2023-06-01T00:24:16.236Z,197.96
2023-06-01T00:25:16.300Z,196.45
2023-06-01T00:26:16.351Z,197.58
2023-06-01T00:27:16.416Z,196.04
2023-06-01T00:28:16.504Z,197.80
2023-06-01T00:29:16.570Z,196.50
2023-06-01T00:30:16.594Z,196.74
2023-06-01T00:31:16.673Z,196.92
2023-06-01T00:32:16.724Z,197.82
2023-06-01T00:33:16.791Z,194.42
2023-06-01T00:34:16.834Z,196.15
2023-06-01T00:35:16.889Z,196.87
2023-06-01T00:36:16.981Z,196.14
2023-06-01T00:37:17.026Z,197.28
2023-06-01T00:38:17.085Z,197.72
2023-06-01T00:39:17.148Z,196.85
2023-06-01T00:40:17.238Z,195.90
2023-06-01T00:41:17.253Z,196.65
2023-06-01T00:42:17.324Z,197.62
2023-06-01T00:43:17.396Z,197.87
2023-06-01T00:44:17.471Z,196.54
2023-06-01T00:45:17.507Z,194.14
2023-06-01T00:46:17.607Z,195.77
2023-06-01T00:47:17.651Z,194.61
2023-06-01T00:48:17.677Z,196.89
2023-06-01T00:49:17.739Z,194.62
2023-06-01T00:50:17.887Z,196.28
2023-06-01T00:51:17.852Z,195.73
2023-06-01T00:52:17.918Z,195.58
2023-06-01T00:53:17.993Z,196.04
2023-06-01T00:54:18.056Z,195.34
2023-06-01T00:55:18.110Z,195.14
2023-06-01T00:56:18.253Z,197.68
2023-06-01T00:57:18.221Z,195.80
2023-06-01T00:58:18.336Z,196.22
2023-06-01T00:59:18.371Z,196.32
2023-06-01T01:00:18.465Z,195.37
2023-06-01T01:01:18.585Z,195.38
2023-06-01T01:02:18.526Z,195.39
2023-06-01T01:03:18.633Z,195.61
2023-06-01T01:04:18.770Z,195.04
2023-06-01T01:05:18.719Z,194.77
2023-06-01T01:06:18.771Z,195.61
2023-06-01T01:07:18.840Z,194.70
2023-06-01T01:08:18.936Z,197.34
2023-06-01T01:09:18.970Z,195.23
2023-06-01T01:10:19.029Z,196.63
2023-06-01T01:11:19.102Z,194.84
2023-06-01T01:12:19.125Z,196.11
2023-06-01T01:13:19.196Z,196.46
2023-06-01T01:14:19.275Z,195.45
2023-06-01T01:15:19.334Z,196.52
2023-06-01T01:16:19.437Z,196.93
2023-06-01T01:17:19.465Z,195.98
2023-06-01T01:18:19.534Z,197.30
2023-06-01T01:19:19.594Z,194.28
2023-06-01T01:20:19.670Z,194.80
2023-06-01T01:21:19.755Z,195.87
2023-06-01T01:22:19.782Z,193.08
2023-06-01T01:23:19.840Z,195.48
2023-06-01T01:24:19.893Z,193.55
2023-06-01T01:25:19.976Z,195.79
2023-06-01T01:26:20.022Z,194.72
2023-06-01T01:27:20.071Z,198.41
2023-06-01T01:28:20.140Z,194.05
2023-06-01T01:29:20.194Z,193.17
2023-06-01T01:30:20.258Z,193.43
2023-06-01T01:31:20.355Z,195.05
2023-06-01T01:32:20.402Z,195.33
2023-06-01T01:33:20.487Z,195.21
2023-06-01T01:34:20.518Z,194.26
2023-06-01T01:35:20.543Z,194.97
2023-06-01T01:36:20.591Z,193.40
2023-06-01T01:37:20.671Z,194.18
2023-06-01T01:38:20.740Z,194.79
2023-06-01T01:39:20.767Z,194.71
2023-06-01T01:40:20.828Z,195.05
2023-06-01T01:41:20.898Z,194.05
2023-06-01T01:42:20.914Z,194.87
2023-06-01T01:43:20.988Z,192.26
2023-06-01T01:44:21.042Z,194.72
2023-06-01T01:45:21.159Z,195.94
2023-06-01T01:46:21.124Z,194.68
2023-06-01T01:47:21.277Z,195.69
2023-06-01T01:48:21.290Z,194.57
2023-06-01T01:49:21.285Z,194.89
2023-06-01T01:50:21.324Z,194.64
2023-06-01T01:51:21.376Z,192.72
2023-06-01T01:52:21.430Z,192.10
2023-06-01T01:53:21.476Z,194.65
2023-06-01T01:54:21.526Z,193.46
2023-06-01T01:55:21.553Z,192.75
2023-06-01T01:56:21.589Z,194.09
2023-06-01T01:57:21.640Z,194.85
2023-06-01T01:58:21.715Z,195.02
2023-06-01T01:59:21.744Z,193.10
2023-06-01T02:00:21.757Z,195.38
2023-06-01T02:01:21.838Z,194.93
2023-06-01T02:02:21.905Z,194.01
2023-06-01T02:03:22.001Z,193.71
2023-06-01T02:04:21.930Z,192.46
2023-06-01T02:05:21.970Z,194.56
2023-06-01T02:06:21.972Z,193.78
2023-06-01T02:07:22.019Z,193.25
2023-06-01T02:08:22.058Z,194.16
2023-06-01T02:09:22.111Z,195.90
2023-06-01T02:10:22.153Z,193.58
2023-06-01T02:11:22.180Z,195.16
2023-06-01T02:12:22.225Z,194.54
2023-06-01T02:13:22.270Z,193.56
2023-06-01T02:14:22.325Z,194.17
2023-06-01T02:15:22.383Z,193.32
2023-06-01T02:16:22.481Z,191.98
2023-06-01T02:17:22.487Z,194.60
2023-06-01T02:18:22.504Z,193.63
2023-06-01T02:19:22.549Z,193.75
2023-06-01T02:20:22.588Z,193.23
2023-06-01T02:21:22.615Z,194.91
2023-06-01T02:22:22.622Z,194.12
2023-06-01T02:23:22.645Z,194.33
2023-06-01T02:24:22.662Z,194.93
2023-06-01T02:25:22.691Z,194.06
2023-06-01T02:26:22.732Z,192.60
2023-06-01T02:27:22.746Z,192.95
2023-06-01T02:28:22.790Z,194.82
2023-06-01T02:29:22.780Z,193.86
2023-06-01T02:30:22.810Z,194.01
2023-06-01T02:31:22.914Z,192.22
2023-06-01T02:32:22.901Z,193.18
2023-06-01T02:33:22.954Z,194.48
2023-06-01T02:34:23.002Z,191.79
2023-06-01T02:35:23.020Z,192.38
2023-06-01T02:36:23.070Z,191.20
2023-06-01T02:37:23.096Z,193.36
2023-06-01T02:38:23.148Z,194.60
2023-06-01T02:39:23.134Z,192.98
2023-06-01T02:40:23.174Z,194.10
2023-06-01T02:41:23.190Z,192.85
2023-06-01T02:42:23.206Z,194.30
2023-06-01T02:43:23.249Z,193.39
2023-06-01T02:44:23.293Z,194.77
2023-06-01T02:45:23.304Z,193.98
2023-06-01T02:46:23.375Z,193.20
2023-06-01T02:47:23.370Z,192.64
2023-06-01T02:48:23.370Z,192.96
2023-06-01T02:49:23.402Z,192.57
2023-06-01T02:50:23.444Z,192.63
2023-06-01T02:51:23.426Z,193.79
2023-06-01T02:52:23.441Z,193.37
2023-06-01T02:53:23.462Z,193.88
2023-06-01T02:54:23.529Z,193.47
2023-06-01T02:55:23.494Z,193.03
2023-06-01T02:56:23.501Z,194.14
2023-06-01T02:57:23.579Z,191.64
2023-06-01T02:58:23.539Z,193.70
2023-06-01T02:59:23.590Z,192.93
2023-06-01T03:00:23.623Z,192.83
2023-06-01T03:01:23.684Z,193.04
2023-06-01T03:02:23.657Z,192.13
2023-06-01T03:03:23.702Z,195.70
2023-06-01T03:04:23.836Z,192.71
2023-06-01T03:05:23.778Z,193.29
2023-06-01T03:06:23.837Z,192.80
2023-06-01T03:07:23.860Z,193.08
2023-06-01T03:08:23.871Z,195.18
2023-06-01T03:09:23.901Z,192.59
2023-06-01T03:10:23.934Z,191.26
2023-06-01T03:11:23.976Z,191.38
2023-06-01T03:12:23.984Z,193.34
2023-06-01T03:13:24.039Z,192.34
2023-06-01T03:14:24.050Z,194.47
2023-06-01T03:15:24.053Z,194.72
2023-06-01T03:16:24.120Z,191.21
2023-06-01T03:17:24.154Z,191.45
2023-06-01T03:18:24.145Z,190.98
2023-06-01T03:19:24.084Z,191.64
2023-06-01T03:20:24.092Z,191.70
2023-06-01T03:21:24.088Z,191.02
2023-06-01T03:22:24.086Z,193.24
2023-06-01T03:23:24.121Z,191.00
2023-06-01T03:24:24.189Z,193.13
2023-06-01T03:25:24.090Z,192.03
2023-06-01T03:26:24.103Z,192.10
2023-06-01T03:27:24.103Z,192.85
2023-06-01T03:28:24.116Z,191.77
2023-06-01T03:29:24.116Z,191.16
2023-06-01T03:30:24.095Z,193.53
2023-06-01T03:31:24.109Z,192.08
2023-06-01T03:32:24.112Z,190.97
2023-06-01T03:33:24.124Z,191.75
2023-06-01T03:34:24.135Z,190.60
2023-06-01T03:35:24.118Z,190.82
2023-06-01T03:36:24.140Z,191.02
2023-06-01T03:37:24.141Z,190.78
2023-06-01T03:38:24.198Z,190.71
2023-06-01T03:39:24.152Z,190.52
2023-06-01T03:40:24.152Z,190.42
2023-06-01T03:41:24.184Z,188.54
2023-06-01T03:42:24.177Z,189.91
2023-06-01T03:43:24.197Z,192.96
2023-06-01T03:44:24.196Z,191.89
2023-06-01T03:45:24.199Z,189.73
2023-06-01T03:46:24.206Z,189.40
2023-06-01T03:47:24.197Z,192.30
2023-06-01T03:48:24.228Z,192.01
2023-06-01T03:49:24.202Z,190.61
2023-06-01T03:50:24.203Z,191.76
2023-06-01T03:51:24.221Z,190.44
2023-06-01T03:52:24.243Z,191.58
2023-06-01T03:53:24.204Z,189.50
2023-06-01T03:54:24.209Z,191.22
2023-06-01T03:55:24.200Z,190.59
2023-06-01T03:56:24.205Z,191.65
2023-06-01T03:57:24.225Z,190.27
2023-06-01T03:58:24.203Z,192.97
2023-06-01T03:59:24.213Z,190.39
2023-06-01T04:00:24.248Z,191.01
2023-06-01T04:01:24.193Z,189.26
2023-06-01T04:02:24.329Z,190.81
2023-06-01T04:03:24.281Z,190.78
2023-06-01T04:04:24.265Z,189.67
2023-06-01T04:05:24.187Z,188.89
2023-06-01T04:06:24.203Z,189.60
2023-06-01T04:07:24.194Z,189.95
2023-06-01T04:08:24.223Z,188.71
2023-06-01T04:09:24.191Z,190.18
2023-06-01T04:10:24.213Z,189.89
2023-06-01T04:11:24.246Z,188.73
2023-06-01T04:12:24.222Z,191.48
2023-06-01T04:13:24.665Z,188.69
2023-06-01T04:14:24.210Z,190.90
2023-06-01T04:15:24.255Z,190.89
2023-06-01T04:16:24.293Z,188.84
2023-06-01T04:17:24.311Z,189.09
2023-06-01T04:18:24.274Z,189.64
2023-06-01T04:19:24.277Z,190.09
2023-06-01T04:20:24.299Z,189.60
2023-06-01T04:21:24.376Z,191.39
2023-06-01T04:22:24.297Z,189.35
2023-06-01T04:23:24.320Z,190.65
2023-06-01T04:24:24.311Z,190.52
2023-06-01T04:25:24.338Z,188.00
2023-06-01T04:26:24.333Z,188.13
2023-06-01T04:27:24.342Z,190.50
2023-06-01T04:28:24.369Z,188.94
2023-06-01T04:29:24.358Z,191.61
2023-06-01T04:30:24.376Z,187.88
2023-06-01T04:31:24.381Z,188.03
2023-06-01T04:32:24.385Z,189.69
2023-06-01T04:33:24.382Z,190.27
2023-06-01T04:34:24.456Z,189.98
2023-06-01T04:35:24.438Z,186.69
2023-06-01T04:36:24.444Z,188.13
2023-06-01T04:37:24.413Z,188.43
2023-06-01T04:38:24.416Z,189.93
2023-06-01T04:39:24.386Z,190.95
2023-06-01T04:40:24.408Z,188.46
2023-06-01T04:41:24.425Z,189.13
2023-06-01T04:42:24.448Z,188.82
2023-06-01T04:43:24.486Z,186.94
2023-06-01T04:44:24.526Z,188.32
2023-06-01T04:45:24.552Z,190.33
2023-06-01T04:46:24.771Z,187.11
2023-06-01T04:47:24.638Z,187.74
2023-06-01T04:48:24.656Z,189.03
2023-06-01T04:49:24.692Z,186.23
2023-06-01T04:50:24.759Z,189.26
2023-06-01T04:51:24.827Z,187.42
2023-06-01T04:52:24.848Z,190.38
2023-06-01T04:53:24.906Z,188.62
2023-06-01T04:54:24.939Z,186.31
2023-06-01T04:55:24.990Z,190.30
2023-06-01T04:56:25.054Z,186.79
2023-06-01T04:57:25.091Z,190.11
2023-06-01T04:58:25.215Z,186.18
2023-06-01T04:59:25.170Z,185.82
2023-06-01T05:00:25.233Z,187.21
2023-06-01T05:01:25.279Z,185.09
2023-06-01T05:02:25.325Z,187.41
2023-06-01T05:03:25.433Z,186.33
2023-06-01T05:04:25.369Z,185.73
2023-06-01T05:05:25.431Z,184.61
2023-06-01T05:06:25.462Z,184.58
2023-06-01T05:07:25.498Z,185.73
2023-06-01T05:08:25.524Z,184.53
2023-06-01T05:09:25.539Z,185.49
2023-06-01T05:10:25.576Z,182.06
2023-06-01T05:11:25.599Z,183.85
2023-06-01T05:12:25.665Z,183.72
2023-06-01T05:13:25.692Z,183.80
2023-06-01T05:14:25.713Z,185.32
2023-06-01T05:15:25.735Z,182.94
2023-06-01T05:16:25.906Z,183.61
2023-06-01T05:17:25.851Z,183.70
2023-06-01T05:18:25.922Z,182.74
2023-06-01T05:19:25.999Z,180.93
2023-06-01T05:20:25.949Z,182.48
2023-06-01T05:21:26.019Z,182.24
2023-06-01T05:22:26.004Z,182.63
2023-06-01T05:23:26.104Z,182.97
2023-06-01T05:24:26.086Z,182.48
2023-06-01T05:25:26.111Z,182.30
2023-06-01T05:26:26.238Z,183.08
2023-06-01T05:27:26.175Z,181.49
2023-06-01T05:28:26.229Z,180.16
2023-06-01T05:29:26.235Z,180.17
2023-06-01T05:30:26.281Z,181.97
2023-06-01T05:31:26.337Z,179.48
2023-06-01T05:32:26.291Z,179.66
2023-06-01T05:33:26.377Z,182.75
2023-06-01T05:34:26.448Z,182.53
2023-06-01T05:35:26.424Z,180.85
2023-06-01T05:36:26.446Z,180.95
2023-06-01T05:37:26.478Z,182.06
2023-06-01T05:38:26.552Z,185.46
2023-06-01T05:39:26.603Z,191.12
2023-06-01T05:40:26.690Z,194.90
2023-06-01T05:41:26.725Z,194.63
2023-06-01T05:42:26.773Z,191.39
2023-06-01T05:43:26.816Z,187.42
2023-06-01T05:44:26.859Z,184.98
2023-06-01T05:45:26.908Z,184.49
2023-06-01T05:46:27.042Z,181.47
2023-06-01T05:47:27.001Z,178.86
2023-06-01T05:48:27.042Z,178.16
2023-06-01T05:49:27.057Z,179.14
2023-06-01T05:50:27.090Z,178.76
2023-06-01T05:51:27.129Z,175.65
2023-06-01T05:52:27.181Z,172.30
2023-06-01T05:53:27.250Z,170.49
2023-06-01T05:54:27.274Z,164.64
2023-06-01T05:55:27.329Z,165.74
2023-06-01T05:56:27.396Z,164.70
2023-06-01T05:57:27.509Z,160.60
2023-06-01T05:58:27.604Z,159.60
2023-06-01T05:59:27.555Z,157.35
2023-06-01T06:00:27.614Z,156.50
2023-06-01T06:01:27.685Z,153.77
2023-06-01T06:02:27.932Z,155.67
2023-06-01T06:03:28.263Z,155.14
2023-06-01T06:04:27.996Z,152.12
2023-06-01T06:05:27.909Z,149.69
2023-06-01T06:06:28.681Z,147.24
2023-06-01T06:07:27.996Z,144.54
2023-06-01T06:08:28.050Z,140.89
2023-06-01T06:09:28.057Z,139.11
2023-06-01T06:10:28.096Z,138.39
2023-06-01T06:11:28.147Z,136.75
2023-06-01T06:12:28.183Z,128.77
2023-06-01T06:13:28.717Z,129.18
2023-06-01T06:14:28.306Z,126.49
2023-06-01T06:15:28.256Z,125.76
2023-06-01T06:16:28.275Z,120.85
2023-06-01T06:17:28.338Z,121.28
2023-06-01T06:18:28.337Z,120.52
2023-06-01T06:19:28.330Z,121.43
2023-06-01T06:20:28.418Z,118.62
2023-06-01T06:21:28.401Z,120.78
2023-06-01T06:22:28.390Z,117.30
2023-06-01T06:23:28.421Z,117.15
2023-06-01T06:24:28.454Z,116.75
2023-06-01T06:25:28.434Z,119.48
2023-06-01T06:26:28.427Z,117.26
2023-06-01T06:27:28.423Z,113.60
2023-06-01T06:28:28.455Z,111.57
2023-06-01T06:29:28.442Z,110.80
2023-06-01T06:30:28.450Z,108.60
2023-06-01T06:31:28.489Z,105.37
2023-06-01T06:32:28.502Z,104.81
2023-06-01T06:33:28.537Z,100.34
2023-06-01T06:34:28.465Z,101.45
2023-06-01T06:35:28.447Z,100.37
2023-06-01T06:36:28.445Z,99.34
2023-06-01T06:37:28.474Z,94.46
2023-06-01T06:38:28.746Z,93.13
2023-06-01T06:39:28.507Z,96.28
2023-06-01T06:40:28.544Z,93.97
2023-06-01T06:41:28.517Z,94.24
2023-06-01T06:42:28.544Z,93.89
2023-06-01T06:43:28.725Z,95.51
2023-06-01T06:44:28.574Z,96.83
2023-06-01T06:45:28.565Z,95.22
2023-06-01T06:46:28.614Z,95.04
2023-06-01T06:47:28.627Z,92.59
2023-06-01T06:48:28.687Z,91.67
2023-06-01T06:49:28.637Z,89.25
2023-06-01T06:50:28.722Z,84.59
2023-06-01T06:51:28.707Z,86.29
2023-06-01T06:52:28.753Z,88.64
2023-06-01T06:53:28.817Z,82.56
2023-06-01T06:54:28.805Z,80.60
2023-06-01T06:55:28.859Z,82.63
2023-06-01T06:56:28.933Z,78.53
2023-06-01T06:57:28.990Z,75.79
2023-06-01T06:58:29.009Z,76.86
2023-06-01T06:59:29.024Z,80.83
2023-06-01T07:00:29.095Z,77.36
2023-06-01T07:01:29.139Z,81.48
2023-06-01T07:02:29.243Z,78.43
2023-06-01T07:03:29.385Z,80.63
2023-06-01T07:04:29.275Z,75.50
2023-06-01T07:05:29.354Z,77.30
2023-06-01T07:06:29.382Z,75.56
2023-06-01T07:07:29.467Z,73.28
2023-06-01T07:08:32.218Z,76.10
2023-06-01T07:09:29.471Z,74.46
2023-06-01T07:10:29.481Z,77.12
2023-06-01T07:11:29.460Z,75.94
2023-06-01T07:12:29.473Z,73.43
2023-06-01T07:13:29.490Z,75.03
2023-06-01T07:14:29.475Z,73.30
2023-06-01T07:15:29.433Z,73.60
2023-06-01T07:16:29.515Z,72.46
2023-06-01T07:17:29.484Z,72.24
2023-06-01T07:18:29.448Z,70.10
2023-06-01T07:19:29.397Z,69.15
2023-06-01T07:20:29.421Z,70.38
2023-06-01T07:21:29.494Z,71.43
2023-06-01T07:22:29.373Z,70.99
2023-06-01T07:23:29.513Z,69.51
2023-06-01T07:24:29.452Z,68.64
2023-06-01T07:25:29.402Z,63.38
2023-06-01T07:26:29.453Z,49.23
2023-06-01T07:27:29.349Z,57.72
2023-06-01T07:28:29.425Z,69.50
2023-06-01T07:29:29.352Z,80.35
2023-06-01T07:30:29.600Z,78.55
2023-06-01T07:31:29.375Z,81.18
2023-06-01T07:32:29.548Z,49.26
2023-06-01T07:33:29.392Z,21.93
2023-06-01T07:34:29.315Z,8.20
2023-06-01T07:35:29.283Z,8.22
2023-06-01T07:36:29.309Z,19.30
2023-06-01T07:37:29.273Z,20.48
2023-06-01T07:38:29.748Z,27.47
2023-06-01T07:39:29.256Z,26.26
2023-06-01T07:40:29.269Z,27.06
2023-06-01T07:41:29.255Z,25.65
2023-06-01T07:42:29.250Z,28.24
2023-06-01T07:43:29.282Z,25.00
2023-06-01T07:44:29.246Z,25.98
2023-06-01T07:45:29.264Z,25.47
2023-06-01T07:46:29.388Z,25.13
2023-06-01T07:47:29.431Z,26.04
2023-06-01T07:48:29.483Z,32.41
2023-06-01T07:49:29.517Z,42.85
2023-06-01T07:50:29.574Z,43.99
2023-06-01T07:51:29.637Z,48.11
2023-06-01T07:52:29.710Z,50.40
2023-06-01T07:53:29.825Z,54.08
2023-06-01T07:54:29.908Z,57.70
2023-06-01T07:55:29.937Z,58.29
2023-06-01T07:56:29.948Z,61.67
2023-06-01T07:57:30.080Z,52.93
2023-06-01T07:58:30.125Z,54.68
2023-06-01T07:59:30.185Z,59.64
2023-06-01T08:00:30.211Z,61.69
2023-06-01T08:01:30.276Z,64.76
2023-06-01T08:02:30.356Z,61.36
2023-06-01T08:03:30.551Z,63.71
2023-06-01T08:04:30.499Z,68.37
2023-06-01T08:05:30.575Z,73.96
2023-06-01T08:06:30.563Z,71.15
2023-06-01T08:07:30.683Z,67.89
2023-06-01T08:08:30.667Z,67.76
2023-06-01T08:09:30.729Z,65.37
2023-06-01T08:10:30.800Z,68.28
2023-06-01T08:11:30.834Z,66.02
2023-06-01T08:12:30.985Z,66.73
2023-06-01T08:13:31.038Z,70.07
2023-06-01T08:14:31.057Z,72.98
2023-06-01T08:15:31.064Z,80.54
2023-06-01T08:16:31.151Z,66.91
2023-06-01T08:17:31.349Z,65.98
2023-06-01T08:18:31.783Z,72.56
2023-06-01T08:19:31.319Z,77.66
2023-06-01T08:20:31.461Z,78.37
2023-06-01T08:21:31.425Z,82.09
2023-06-01T08:22:31.441Z,88.33
2023-06-01T08:23:31.593Z,88.06
2023-06-01T08:24:31.532Z,83.88
2023-06-01T08:25:31.589Z,90.85
2023-06-01T08:26:31.756Z,104.14
2023-06-01T08:27:31.700Z,115.35
2023-06-01T08:28:31.718Z,125.60
2023-06-01T08:29:42.041Z,135.25
2023-06-01T08:30:32.792Z,135.55
2023-06-01T08:31:31.786Z,136.83
2023-06-01T08:32:31.764Z,141.94
2023-06-01T08:33:31.746Z,150.99
2023-06-01T08:34:31.721Z,163.77
2023-06-01T08:35:31.697Z,167.62
2023-06-01T08:36:31.755Z,169.75
2023-06-01T08:37:31.694Z,173.20
2023-06-01T08:38:31.691Z,174.57
2023-06-01T08:39:31.724Z,174.79
2023-06-01T08:40:31.701Z,160.52
2023-06-01T08:41:31.777Z,155.06
2023-06-01T08:42:31.658Z,160.12
2023-06-01T08:43:31.679Z,167.48
2023-06-01T08:44:31.651Z,176.52
2023-06-01T08:45:31.677Z,116.86
2023-06-01T08:46:31.771Z,114.60
2023-06-01T08:47:31.721Z,149.37
2023-06-01T08:48:31.728Z,168.36
2023-06-01T08:49:31.707Z,179.73
2023-06-01T08:50:31.744Z,181.87
2023-06-01T08:51:31.791Z,187.27
2023-06-01T08:52:31.789Z,189.93
2023-06-01T08:53:31.847Z,186.28
2023-06-01T08:54:31.791Z,193.06
2023-06-01T08:55:31.805Z,189.79
2023-06-01T08:56:31.824Z,190.46
2023-06-01T08:57:31.951Z,191.47
2023-06-01T08:58:31.962Z,150.01
2023-06-01T08:59:31.931Z,94.28
2023-06-01T09:00:31.960Z,82.89
2023-06-01T09:01:32.006Z,96.49
2023-06-01T09:02:32.015Z,96.35
2023-06-01T09:03:32.080Z,132.33
2023-06-01T09:04:32.119Z,149.39
2023-06-01T09:05:32.197Z,74.77
2023-06-01T09:06:32.209Z,54.53
2023-06-01T09:07:32.223Z,71.62
2023-06-01T09:08:32.325Z,26.67
2023-06-01T09:09:32.487Z,45.43
2023-06-01T09:10:32.313Z,78.71
2023-06-01T09:11:32.308Z,110.42
2023-06-01T09:12:32.313Z,128.74
2023-06-01T09:13:32.338Z,79.37
2023-06-01T09:14:32.331Z,37.18
2023-06-01T09:15:32.396Z,58.87
2023-06-01T09:16:32.341Z,91.70
2023-06-01T09:17:32.426Z,113.95
2023-06-01T09:18:32.550Z,131.68
2023-06-01T09:19:32.611Z,143.72
2023-06-01T09:20:32.686Z,160.09
2023-06-01T09:21:32.826Z,171.29
2023-06-01T09:22:32.821Z,176.58
2023-06-01T09:23:32.824Z,183.93
2023-06-01T09:24:32.815Z,188.40
2023-06-01T09:25:32.842Z,185.35
2023-06-01T09:26:32.849Z,179.57
2023-06-01T09:27:32.895Z,169.73
2023-06-01T09:28:32.900Z,158.66
2023-06-01T09:29:32.940Z,115.69
2023-06-01T09:30:32.999Z,99.80
2023-06-01T09:31:33.133Z,105.70
2023-06-01T09:32:33.046Z,93.46
2023-06-01T09:33:33.016Z,105.50
2023-06-01T09:34:33.060Z,112.46
2023-06-01T09:35:33.070Z,134.21
2023-06-01T09:36:33.122Z,144.93
2023-06-01T09:37:33.203Z,128.95
2023-06-01T09:38:33.188Z,156.90
2023-06-01T09:39:33.239Z,172.87
2023-06-01T09:40:33.257Z,171.21
2023-06-01T09:41:33.324Z,163.68
2023-06-01T09:42:33.348Z,158.31
2023-06-01T09:43:33.408Z,150.70
2023-06-01T09:44:33.481Z,128.68
2023-06-01T09:45:33.549Z,114.78
2023-06-01T09:46:33.661Z,111.04
2023-06-01T09:47:33.722Z,121.49
2023-06-01T09:48:33.713Z,78.55
2023-06-01T09:49:33.831Z,98.47
2023-06-01T09:50:33.829Z,109.10
2023-06-01T09:51:33.881Z,4.41
2023-06-01T09:52:33.924Z,0.00
2023-06-01T09:53:33.997Z,20.03
2023-06-01T09:54:34.027Z,54.27
2023-06-01T09:55:34.119Z,62.96
2023-06-01T09:56:34.550Z,83.61
2023-06-01T09:57:34.240Z,76.95
2023-06-01T09:58:34.301Z,86.22
2023-06-01T09:59:34.337Z,109.41
2023-06-01T10:00:34.394Z,127.91
2023-06-01T10:01:34.480Z,70.40
2023-06-01T10:02:34.591Z,12.18
2023-06-01T10:03:34.578Z,2.37
2023-06-01T10:04:34.626Z,0.00
2023-06-01T10:05:34.620Z,0.00
2023-06-01T10:06:34.661Z,12.04
2023-06-01T10:07:34.723Z,47.91
2023-06-01T10:08:34.794Z,35.46
2023-06-01T10:09:34.858Z,53.38
2023-06-01T10:10:34.933Z,50.29
2023-06-01T10:11:34.969Z,51.08
2023-06-01T10:12:35.168Z,77.01
2023-06-01T10:13:35.078Z,98.73
2023-06-01T10:14:35.152Z,111.06
2023-06-01T10:15:35.197Z,87.82
2023-06-01T10:16:35.269Z,104.15
2023-06-01T10:17:36.554Z,100.49
2023-06-01T10:18:35.304Z,91.41
2023-06-01T10:19:35.261Z,112.20
2023-06-01T10:20:35.275Z,134.83
2023-06-01T10:21:35.281Z,152.95
2023-06-01T10:22:35.259Z,134.14
2023-06-01T10:23:35.287Z,140.85
2023-06-01T10:24:35.238Z,154.41
2023-06-01T10:25:35.243Z,151.33
2023-06-01T10:26:35.244Z,157.35
2023-06-01T10:27:35.251Z,142.61
2023-06-01T10:28:35.278Z,120.70
2023-06-01T10:29:35.239Z,126.00
2023-06-01T10:30:35.207Z,123.56
2023-06-01T10:31:35.264Z,117.14
2023-06-01T10:32:35.192Z,96.56
2023-06-01T10:33:35.352Z,40.85
2023-06-01T10:34:35.186Z,0.00
2023-06-01T10:35:35.223Z,0.00
2023-06-01T10:36:35.165Z,0.00
2023-06-01T10:37:35.208Z,20.55
2023-06-01T10:38:35.225Z,21.66
2023-06-01T10:39:37.266Z,30.00
2023-06-01T10:40:35.136Z,30.32
2023-06-01T10:41:35.154Z,34.30
2023-06-01T10:42:35.146Z,42.29
2023-06-01T10:43:35.378Z,63.93
2023-06-01T10:44:35.106Z,85.38
2023-06-01T10:45:35.287Z,92.26
2023-06-01T10:46:35.113Z,73.62
2023-06-01T10:47:35.320Z,41.39
2023-06-01T10:48:35.083Z,43.44
2023-06-01T10:49:35.087Z,59.49
2023-06-01T10:50:35.083Z,45.14
2023-06-01T10:51:35.050Z,60.59
2023-06-01T10:52:35.059Z,54.25
2023-06-01T10:53:35.029Z,50.99
2023-06-01T10:54:35.064Z,61.49
2023-06-01T10:55:35.025Z,56.71
2023-06-01T10:56:35.040Z,61.73
2023-06-01T10:57:35.064Z,71.60
2023-06-01T10:58:35.034Z,65.43
2023-06-01T10:59:35.025Z,52.11
2023-06-01T11:00:35.014Z,66.38
2023-06-01T11:01:35.006Z,86.26
2023-06-01T11:02:35.046Z,99.86
2023-06-01T11:03:34.981Z,95.54
2023-06-01T11:04:35.147Z,82.55
2023-06-01T11:05:35.004Z,75.83
2023-06-01T11:06:34.946Z,62.11
2023-06-01T11:07:34.932Z,72.09
2023-06-01T11:08:34.947Z,61.18
2023-06-01T11:09:34.923Z,61.34
2023-06-01T11:10:34.947Z,65.71
2023-06-01T11:11:34.948Z,64.63
2023-06-01T11:12:34.941Z,68.83
2023-06-01T11:13:34.890Z,79.32
2023-06-01T11:14:35.285Z,82.39
2023-06-01T11:15:34.941Z,91.19
2023-06-01T11:16:34.922Z,101.95
2023-06-01T11:17:34.927Z,120.04
2023-06-01T11:18:34.947Z,131.69
2023-06-01T11:19:34.879Z,146.23
2023-06-01T11:20:34.871Z,156.20
2023-06-01T11:21:34.896Z,165.21
2023-06-01T11:22:34.858Z,168.46
2023-06-01T11:23:34.861Z,174.45
2023-06-01T11:24:34.910Z,181.59
2023-06-01T11:25:34.959Z,186.86
2023-06-01T11:26:34.971Z,191.95
2023-06-01T11:27:34.976Z,194.88
2023-06-01T11:28:34.968Z,197.76
2023-06-01T11:29:34.982Z,199.83
2023-06-01T11:30:35.000Z,204.10
2023-06-01T11:31:35.009Z,208.11
2023-06-01T11:32:35.026Z,210.08
2023-06-01T11:33:35.012Z,212.60
2023-06-01T11:34:34.976Z,215.22
2023-06-01T11:35:34.983Z,217.99
2023-06-01T11:36:34.985Z,222.56
2023-06-01T11:37:35.029Z,223.35
2023-06-01T11:38:35.617Z,225.19
2023-06-01T11:39:35.027Z,227.71
2023-06-01T11:40:39.522Z,229.99
2023-06-01T11:41:36.027Z,230.06
2023-06-01T11:42:35.030Z,230.76
2023-06-01T11:43:35.027Z,231.64
2023-06-01T11:44:35.063Z,235.01
2023-06-01T11:45:35.037Z,238.32
2023-06-01T11:46:35.029Z,241.66
2023-06-01T11:47:35.018Z,241.76
2023-06-01T11:48:35.028Z,243.57
2023-06-01T11:49:35.003Z,244.22
2023-06-01T11:50:35.004Z,246.90
2023-06-01T11:51:34.974Z,247.39
2023-06-01T11:52:34.960Z,248.78
2023-06-01T11:53:34.960Z,250.00
2023-06-01T11:54:34.970Z,249.75
2023-06-01T11:55:34.946Z,249.07
2023-06-01T11:56:34.960Z,249.54
2023-06-01T11:57:34.941Z,249.15
2023-06-01T11:58:34.943Z,249.49
2023-06-01T11:59:34.924Z,249.77
2023-06-01T12:00:34.941Z,249.57
2023-06-01T12:01:34.905Z,249.31
2023-06-01T12:02:34.993Z,248.55
2023-06-01T12:03:34.957Z,249.54
2023-06-01T12:04:35.012Z,250.00
2023-06-01T12:05:34.892Z,248.10
2023-06-01T12:06:34.907Z,249.50
2023-06-01T12:07:34.923Z,248.71
2023-06-01T12:08:34.956Z,248.73
2023-06-01T12:09:34.952Z,249.51
2023-06-01T12:10:34.964Z,248.68
2023-06-01T12:11:34.988Z,249.39
2023-06-01T12:12:35.027Z,249.90
2023-06-01T12:13:35.066Z,249.86
2023-06-01T12:14:35.114Z,249.11
2023-06-01T12:15:35.081Z,249.71
2023-06-01T12:16:35.100Z,249.91
2023-06-01T12:17:35.221Z,249.40
2023-06-01T12:18:35.251Z,249.30
2023-06-01T12:19:35.173Z,249.34
2023-06-01T12:20:35.173Z,249.39
2023-06-01T12:21:35.194Z,248.11
2023-06-01T12:22:35.194Z,249.91
2023-06-01T12:23:35.220Z,249.68
2023-06-01T12:24:35.288Z,249.75
2023-06-01T12:25:35.253Z,249.65
2023-06-01T12:26:35.268Z,249.67
2023-06-01T12:27:35.294Z,248.86
2023-06-01T12:28:35.294Z,248.34
2023-06-01T12:29:35.328Z,248.13
2023-06-01T12:30:35.334Z,248.26
2023-06-01T12:31:35.404Z,247.86
2023-06-01T12:32:35.373Z,247.53
2023-06-01T12:33:35.395Z,249.60
2023-06-01T12:34:35.401Z,249.58